sensor_id;sensor_type;location;lat;lon;timestamp;P1;durP1;ratioP1;P2;durP2;ratioP2
65035;SDS011;51603;49.300;8.880;2023-01-05T00:00:55;1.17;;;0.80;;
65035;SDS011;51603;49.300;8.880;2023-01-05T00:03:27;1.20;;;0.80;;
65035;SDS011;51603;49.300;8.880;2023-01-05T00:05:57;1.30;;;0.87;;
65035;SDS011;51603;49.300;8.880;2023-01-05T00:08:24;0.97;;;0.77;;
65035;SDS011;51603;49.300;8.880;2023-01-05T00:10:50;0.90;;;0.60;;
65035;SDS011;51603;49.300;8.880;2023-01-05T00:13:34;2.77;;;1.40;;
65035;SDS011;51603;49.300;8.880;2023-01-05T00:16:18;1.27;;;1.17;;
65035;SDS011;51603;49.300;8.880;2023-01-05T00:19:02;3.50;;;1.00;;
65035;SDS011;51603;49.300;8.880;2023-01-05T00:21:47;1.40;;;1.23;;
65035;SDS011;51603;49.300;8.880;2023-01-05T00:24:31;2.27;;;1.97;;
65035;SDS011;51603;49.300;8.880;2023-01-05T00:26:56;2.60;;;1.20;;
65035;SDS011;51603;49.300;8.880;2023-01-05T00:29:22;1.53;;;1.00;;
65035;SDS011;51603;49.300;8.880;2023-01-05T00:31:47;1.60;;;1.50;;
65035;SDS011;51603;49.300;8.880;2023-01-05T00:34:13;0.90;;;0.87;;
65035;SDS011;51603;49.300;8.880;2023-01-05T00:36:39;1.03;;;0.93;;
65035;SDS011;51603;49.300;8.880;2023-01-05T00:39:05;0.93;;;0.93;;
65035;SDS011;51603;49.300;8.880;2023-01-05T00:41:31;2.97;;;1.00;;
65035;SDS011;51603;49.300;8.880;2023-01-05T00:43:56;1.23;;;1.10;;
65035;SDS011;51603;49.300;8.880;2023-01-05T00:46:22;1.10;;;1.00;;
65035;SDS011;51603;49.300;8.880;2023-01-05T00:48:47;1.47;;;1.07;;
65035;SDS011;51603;49.300;8.880;2023-01-05T00:51:13;1.00;;;0.90;;
65035;SDS011;51603;49.300;8.880;2023-01-05T00:53:38;0.87;;;0.87;;
65035;SDS011;51603;49.300;8.880;2023-01-05T00:56:04;1.43;;;1.27;;
65035;SDS011;51603;49.300;8.880;2023-01-05T00:58:29;1.47;;;1.00;;
65035;SDS011;51603;49.300;8.880;2023-01-05T01:00:55;2.40;;;0.97;;
65035;SDS011;51603;49.300;8.880;2023-01-05T01:03:20;2.03;;;1.30;;
65035;SDS011;51603;49.300;8.880;2023-01-05T01:05:54;1.30;;;0.80;;
65035;SDS011;51603;49.300;8.880;2023-01-05T01:08:20;0.90;;;0.70;;
65035;SDS011;51603;49.300;8.880;2023-01-05T01:10:46;1.13;;;0.90;;
65035;SDS011;51603;49.300;8.880;2023-01-05T01:13:12;0.83;;;0.83;;
65035;SDS011;51603;49.300;8.880;2023-01-05T01:15:37;1.30;;;1.20;;
65035;SDS011;51603;49.300;8.880;2023-01-05T01:18:03;1.60;;;1.17;;
65035;SDS011;51603;49.300;8.880;2023-01-05T01:20:28;5.30;;;1.10;;
65035;SDS011;51603;49.300;8.880;2023-01-05T01:22:54;2.83;;;1.10;;
65035;SDS011;51603;49.300;8.880;2023-01-05T01:25:20;1.30;;;1.00;;
65035;SDS011;51603;49.300;8.880;2023-01-05T01:27:46;1.17;;;1.00;;
65035;SDS011;51603;49.300;8.880;2023-01-05T01:30:12;1.30;;;0.97;;
65035;SDS011;51603;49.300;8.880;2023-01-05T01:32:38;0.90;;;0.73;;
65035;SDS011;51603;49.300;8.880;2023-01-05T01:35:03;1.20;;;1.00;;
65035;SDS011;51603;49.300;8.880;2023-01-05T01:37:29;1.40;;;1.00;;
65035;SDS011;51603;49.300;8.880;2023-01-05T01:39:55;1.20;;;0.77;;
65035;SDS011;51603;49.300;8.880;2023-01-05T01:42:21;2.93;;;1.00;;
65035;SDS011;51603;49.300;8.880;2023-01-05T01:44:48;1.17;;;0.83;;
65035;SDS011;51603;49.300;8.880;2023-01-05T01:49:58;1.70;;;0.90;;
65035;SDS011;51603;49.300;8.880;2023-01-05T01:52:27;1.10;;;1.00;;
65035;SDS011;51603;49.300;8.880;2023-01-05T01:54:55;2.00;;;0.90;;
65035;SDS011;51603;49.300;8.880;2023-01-05T01:57:21;3.83;;;1.20;;
65035;SDS011;51603;49.300;8.880;2023-01-05T01:59:48;1.10;;;0.90;;
65035;SDS011;51603;49.300;8.880;2023-01-05T02:02:14;1.57;;;1.00;;
65035;SDS011;51603;49.300;8.880;2023-01-05T02:04:39;1.20;;;0.90;;
65035;SDS011;51603;49.300;8.880;2023-01-05T02:07:07;1.30;;;0.83;;
65035;SDS011;51603;49.300;8.880;2023-01-05T02:09:36;1.20;;;0.93;;
65035;SDS011;51603;49.300;8.880;2023-01-05T02:12:03;0.83;;;0.80;;
65035;SDS011;51603;49.300;8.880;2023-01-05T02:15:10;1.23;;;1.13;;
65035;SDS011;51603;49.300;8.880;2023-01-05T02:18:07;1.80;;;1.00;;
65035;SDS011;51603;49.300;8.880;2023-01-05T02:23:38;1.53;;;1.07;;
65035;SDS011;51603;49.300;8.880;2023-01-05T02:28:44;1.37;;;1.00;;
65035;SDS011;51603;49.300;8.880;2023-01-05T02:31:37;1.30;;;1.20;;
65035;SDS011;51603;49.300;8.880;2023-01-05T02:37:07;1.03;;;0.93;;
65035;SDS011;51603;49.300;8.880;2023-01-05T02:39:55;1.30;;;1.20;;
65035;SDS011;51603;49.300;8.880;2023-01-05T02:42:44;1.90;;;0.97;;
65035;SDS011;51603;49.300;8.880;2023-01-05T02:45:11;1.10;;;1.00;;
65035;SDS011;51603;49.300;8.880;2023-01-05T02:47:41;1.80;;;1.00;;
65035;SDS011;51603;49.300;8.880;2023-01-05T02:50:14;2.27;;;1.23;;
65035;SDS011;51603;49.300;8.880;2023-01-05T02:55:29;0.90;;;0.80;;
65035;SDS011;51603;49.300;8.880;2023-01-05T02:58:02;1.20;;;0.80;;
65035;SDS011;51603;49.300;8.880;2023-01-05T03:00:35;1.23;;;0.93;;
65035;SDS011;51603;49.300;8.880;2023-01-05T03:03:51;0.83;;;0.70;;
65035;SDS011;51603;49.300;8.880;2023-01-05T03:05:58;1.47;;;0.93;;
65035;SDS011;51603;49.300;8.880;2023-01-05T03:08:30;1.40;;;0.70;;
65035;SDS011;51603;49.300;8.880;2023-01-05T03:11:09;1.00;;;0.70;;
65035;SDS011;51603;49.300;8.880;2023-01-05T03:16:36;1.80;;;0.60;;
65035;SDS011;51603;49.300;8.880;2023-01-05T03:19:03;1.57;;;0.63;;
65035;SDS011;51603;49.300;8.880;2023-01-05T03:21:52;1.70;;;1.23;;
65035;SDS011;51603;49.300;8.880;2023-01-05T03:24:38;0.50;;;0.50;;
65035;SDS011;51603;49.300;8.880;2023-01-05T03:27:24;4.13;;;0.90;;
65035;SDS011;51603;49.300;8.880;2023-01-05T03:30:09;1.63;;;0.90;;
65035;SDS011;51603;49.300;8.880;2023-01-05T03:32:56;1.20;;;0.63;;
65035;SDS011;51603;49.300;8.880;2023-01-05T03:35:48;1.27;;;0.87;;
65035;SDS011;51603;49.300;8.880;2023-01-05T03:38:29;1.90;;;0.90;;
65035;SDS011;51603;49.300;8.880;2023-01-05T03:41:00;1.73;;;0.77;;
65035;SDS011;51603;49.300;8.880;2023-01-05T03:43:28;1.40;;;0.80;;
65035;SDS011;51603;49.300;8.880;2023-01-05T03:45:58;0.70;;;0.50;;
65035;SDS011;51603;49.300;8.880;2023-01-05T03:48:24;2.50;;;0.70;;
65035;SDS011;51603;49.300;8.880;2023-01-05T03:50:52;1.13;;;0.80;;
65035;SDS011;51603;49.300;8.880;2023-01-05T03:53:18;1.20;;;0.80;;
65035;SDS011;51603;49.300;8.880;2023-01-05T03:55:43;2.70;;;1.00;;
65035;SDS011;51603;49.300;8.880;2023-01-05T03:58:09;1.03;;;0.90;;
65035;SDS011;51603;49.300;8.880;2023-01-05T04:00:35;1.00;;;0.63;;
65035;SDS011;51603;49.300;8.880;2023-01-05T04:03:00;0.80;;;0.67;;
65035;SDS011;51603;49.300;8.880;2023-01-05T04:05:26;0.83;;;0.60;;
65035;SDS011;51603;49.300;8.880;2023-01-05T04:07:51;1.17;;;0.70;;
65035;SDS011;51603;49.300;8.880;2023-01-05T04:10:17;1.10;;;0.50;;
65035;SDS011;51603;49.300;8.880;2023-01-05T04:12:42;0.93;;;0.73;;
65035;SDS011;51603;49.300;8.880;2023-01-05T04:15:10;1.43;;;0.80;;
65035;SDS011;51603;49.300;8.880;2023-01-05T04:17:35;0.80;;;0.57;;
65035;SDS011;51603;49.300;8.880;2023-01-05T04:20:01;1.00;;;0.60;;
65035;SDS011;51603;49.300;8.880;2023-01-05T04:22:29;1.47;;;0.80;;
65035;SDS011;51603;49.300;8.880;2023-01-05T04:24:55;1.33;;;0.73;;
65035;SDS011;51603;49.300;8.880;2023-01-05T04:27:21;2.40;;;0.80;;
65035;SDS011;51603;49.300;8.880;2023-01-05T04:29:47;2.20;;;0.90;;
65035;SDS011;51603;49.300;8.880;2023-01-05T04:32:12;1.10;;;0.80;;
65035;SDS011;51603;49.300;8.880;2023-01-05T04:34:38;1.63;;;0.83;;
65035;SDS011;51603;49.300;8.880;2023-01-05T04:37:03;0.80;;;0.50;;
65035;SDS011;51603;49.300;8.880;2023-01-05T04:39:29;1.10;;;0.80;;
65035;SDS011;51603;49.300;8.880;2023-01-05T04:41:54;0.93;;;0.57;;
65035;SDS011;51603;49.300;8.880;2023-01-05T04:44:20;1.03;;;0.53;;
65035;SDS011;51603;49.300;8.880;2023-01-05T04:46:45;1.10;;;0.87;;
65035;SDS011;51603;49.300;8.880;2023-01-05T04:49:11;1.80;;;0.80;;
65035;SDS011;51603;49.300;8.880;2023-01-05T04:51:37;1.30;;;0.47;;
65035;SDS011;51603;49.300;8.880;2023-01-05T04:54:02;0.73;;;0.63;;
65035;SDS011;51603;49.300;8.880;2023-01-05T04:56:28;1.33;;;0.70;;
65035;SDS011;51603;49.300;8.880;2023-01-05T04:58:53;4.20;;;0.53;;
65035;SDS011;51603;49.300;8.880;2023-01-05T05:01:19;1.27;;;0.90;;
65035;SDS011;51603;49.300;8.880;2023-01-05T05:03:44;1.60;;;0.70;;
65035;SDS011;51603;49.300;8.880;2023-01-05T05:06:10;3.40;;;0.70;;
65035;SDS011;51603;49.300;8.880;2023-01-05T05:08:35;1.00;;;0.87;;
65035;SDS011;51603;49.300;8.880;2023-01-05T05:11:01;1.63;;;0.73;;
65035;SDS011;51603;49.300;8.880;2023-01-05T05:13:27;3.67;;;0.90;;
65035;SDS011;51603;49.300;8.880;2023-01-05T05:15:52;4.73;;;0.80;;
65035;SDS011;51603;49.300;8.880;2023-01-05T05:18:18;6.97;;;2.07;;
65035;SDS011;51603;49.300;8.880;2023-01-05T05:20:45;3.20;;;1.70;;
65035;SDS011;51603;49.300;8.880;2023-01-05T05:23:14;6.57;;;1.63;;
65035;SDS011;51603;49.300;8.880;2023-01-05T05:25:40;7.07;;;1.63;;
65035;SDS011;51603;49.300;8.880;2023-01-05T05:28:05;5.83;;;1.53;;
65035;SDS011;51603;49.300;8.880;2023-01-05T05:30:31;7.63;;;1.70;;
65035;SDS011;51603;49.300;8.880;2023-01-05T05:32:57;7.30;;;1.50;;
65035;SDS011;51603;49.300;8.880;2023-01-05T05:35:22;10.73;;;2.10;;
65035;SDS011;51603;49.300;8.880;2023-01-05T05:37:48;9.60;;;2.63;;
65035;SDS011;51603;49.300;8.880;2023-01-05T05:40:13;6.73;;;1.90;;
65035;SDS011;51603;49.300;8.880;2023-01-05T05:42:39;8.70;;;2.53;;
65035;SDS011;51603;49.300;8.880;2023-01-05T05:45:04;7.57;;;2.13;;
65035;SDS011;51603;49.300;8.880;2023-01-05T05:47:30;10.10;;;2.37;;
65035;SDS011;51603;49.300;8.880;2023-01-05T05:49:56;11.67;;;2.63;;
65035;SDS011;51603;49.300;8.880;2023-01-05T05:52:21;8.60;;;2.47;;
65035;SDS011;51603;49.300;8.880;2023-01-05T05:54:47;10.53;;;3.10;;
65035;SDS011;51603;49.300;8.880;2023-01-05T05:57:13;6.33;;;2.17;;
65035;SDS011;51603;49.300;8.880;2023-01-05T05:59:39;6.97;;;2.43;;
65035;SDS011;51603;49.300;8.880;2023-01-05T06:02:04;6.57;;;2.07;;
65035;SDS011;51603;49.300;8.880;2023-01-05T06:04:30;6.33;;;2.00;;
65035;SDS011;51603;49.300;8.880;2023-01-05T06:06:55;6.43;;;2.40;;
65035;SDS011;51603;49.300;8.880;2023-01-05T06:09:21;8.90;;;2.10;;
65035;SDS011;51603;49.300;8.880;2023-01-05T06:11:46;8.20;;;2.53;;
65035;SDS011;51603;49.300;8.880;2023-01-05T06:14:12;8.93;;;2.60;;
65035;SDS011;51603;49.300;8.880;2023-01-05T06:16:37;9.60;;;2.37;;
65035;SDS011;51603;49.300;8.880;2023-01-05T06:19:03;10.20;;;2.73;;
65035;SDS011;51603;49.300;8.880;2023-01-05T06:21:28;15.37;;;2.90;;
65035;SDS011;51603;49.300;8.880;2023-01-05T06:23:54;7.27;;;2.23;;
65035;SDS011;51603;49.300;8.880;2023-01-05T06:26:19;6.57;;;2.37;;
65035;SDS011;51603;49.300;8.880;2023-01-05T06:28:45;9.07;;;2.60;;
65035;SDS011;51603;49.300;8.880;2023-01-05T06:31:11;11.83;;;3.43;;
65035;SDS011;51603;49.300;8.880;2023-01-05T06:33:36;13.53;;;3.23;;
65035;SDS011;51603;49.300;8.880;2023-01-05T06:36:02;9.73;;;2.33;;
65035;SDS011;51603;49.300;8.880;2023-01-05T06:38:28;10.17;;;2.40;;
65035;SDS011;51603;49.300;8.880;2023-01-05T06:40:54;7.93;;;2.30;;
65035;SDS011;51603;49.300;8.880;2023-01-05T06:43:20;11.70;;;3.00;;
65035;SDS011;51603;49.300;8.880;2023-01-05T06:45:45;11.00;;;2.30;;
65035;SDS011;51603;49.300;8.880;2023-01-05T06:48:11;6.13;;;1.77;;
65035;SDS011;51603;49.300;8.880;2023-01-05T06:50:37;7.73;;;2.30;;
65035;SDS011;51603;49.300;8.880;2023-01-05T06:53:02;9.10;;;2.37;;
65035;SDS011;51603;49.300;8.880;2023-01-05T06:55:28;7.00;;;3.37;;
65035;SDS011;51603;49.300;8.880;2023-01-05T06:57:53;13.87;;;3.10;;
65035;SDS011;51603;49.300;8.880;2023-01-05T07:00:19;13.23;;;3.30;;
65035;SDS011;51603;49.300;8.880;2023-01-05T07:02:45;13.97;;;3.03;;
65035;SDS011;51603;49.300;8.880;2023-01-05T07:05:11;5.27;;;2.10;;
65035;SDS011;51603;49.300;8.880;2023-01-05T07:07:37;8.70;;;2.30;;
65035;SDS011;51603;49.300;8.880;2023-01-05T07:10:02;7.27;;;2.20;;
65035;SDS011;51603;49.300;8.880;2023-01-05T07:12:28;10.67;;;2.13;;
65035;SDS011;51603;49.300;8.880;2023-01-05T07:14:54;11.30;;;2.70;;
65035;SDS011;51603;49.300;8.880;2023-01-05T07:17:20;12.60;;;2.63;;
65035;SDS011;51603;49.300;8.880;2023-01-05T07:19:45;8.20;;;2.40;;
65035;SDS011;51603;49.300;8.880;2023-01-05T07:22:11;11.63;;;3.40;;
65035;SDS011;51603;49.300;8.880;2023-01-05T07:24:36;14.63;;;2.97;;
65035;SDS011;51603;49.300;8.880;2023-01-05T07:27:02;10.13;;;3.20;;
65035;SDS011;51603;49.300;8.880;2023-01-05T07:29:28;8.53;;;2.30;;
65035;SDS011;51603;49.300;8.880;2023-01-05T07:31:53;11.70;;;2.60;;
65035;SDS011;51603;49.300;8.880;2023-01-05T07:34:19;13.37;;;3.30;;
65035;SDS011;51603;49.300;8.880;2023-01-05T07:36:46;13.50;;;2.80;;
65035;SDS011;51603;49.300;8.880;2023-01-05T07:39:12;11.53;;;2.97;;
65035;SDS011;51603;49.300;8.880;2023-01-05T07:41:38;9.30;;;2.60;;
65035;SDS011;51603;49.300;8.880;2023-01-05T07:44:03;8.60;;;2.87;;
65035;SDS011;51603;49.300;8.880;2023-01-05T07:46:29;9.70;;;2.40;;
65035;SDS011;51603;49.300;8.880;2023-01-05T07:48:54;6.80;;;2.43;;
65035;SDS011;51603;49.300;8.880;2023-01-05T07:51:20;9.20;;;2.70;;
65035;SDS011;51603;49.300;8.880;2023-01-05T07:53:46;12.03;;;3.33;;
65035;SDS011;51603;49.300;8.880;2023-01-05T07:56:12;8.90;;;2.63;;
65035;SDS011;51603;49.300;8.880;2023-01-05T07:58:38;9.10;;;3.53;;
65035;SDS011;51603;49.300;8.880;2023-01-05T08:01:05;8.13;;;2.70;;
65035;SDS011;51603;49.300;8.880;2023-01-05T08:03:34;8.73;;;2.40;;
65035;SDS011;51603;49.300;8.880;2023-01-05T08:06:07;11.03;;;2.43;;
65035;SDS011;51603;49.300;8.880;2023-01-05T08:08:34;11.30;;;3.20;;
65035;SDS011;51603;49.300;8.880;2023-01-05T08:11:02;9.10;;;2.80;;
65035;SDS011;51603;49.300;8.880;2023-01-05T08:13:29;7.27;;;2.50;;
65035;SDS011;51603;49.300;8.880;2023-01-05T08:16:13;7.93;;;3.10;;
65035;SDS011;51603;49.300;8.880;2023-01-05T08:18:39;11.67;;;2.60;;
65035;SDS011;51603;49.300;8.880;2023-01-05T08:21:04;11.07;;;2.93;;
65035;SDS011;51603;49.300;8.880;2023-01-05T08:23:32;10.83;;;3.57;;
65035;SDS011;51603;49.300;8.880;2023-01-05T08:26:02;8.37;;;2.67;;
65035;SDS011;51603;49.300;8.880;2023-01-05T08:28:31;7.60;;;2.17;;
65035;SDS011;51603;49.300;8.880;2023-01-05T08:31:03;9.47;;;3.17;;
65035;SDS011;51603;49.300;8.880;2023-01-05T08:33:30;7.03;;;2.30;;
65035;SDS011;51603;49.300;8.880;2023-01-05T08:35:56;11.57;;;2.90;;
65035;SDS011;51603;49.300;8.880;2023-01-05T08:38:22;10.53;;;2.37;;
65035;SDS011;51603;49.300;8.880;2023-01-05T08:40:47;10.93;;;3.17;;
65035;SDS011;51603;49.300;8.880;2023-01-05T08:43:13;14.40;;;3.60;;
65035;SDS011;51603;49.300;8.880;2023-01-05T08:45:38;13.57;;;3.30;;
65035;SDS011;51603;49.300;8.880;2023-01-05T08:48:04;11.03;;;3.10;;
65035;SDS011;51603;49.300;8.880;2023-01-05T08:50:30;13.67;;;3.77;;
65035;SDS011;51603;49.300;8.880;2023-01-05T08:52:56;9.47;;;2.67;;
65035;SDS011;51603;49.300;8.880;2023-01-05T08:55:21;9.13;;;3.30;;
65035;SDS011;51603;49.300;8.880;2023-01-05T08:57:47;11.00;;;3.90;;
65035;SDS011;51603;49.300;8.880;2023-01-05T09:00:13;10.57;;;2.90;;
65035;SDS011;51603;49.300;8.880;2023-01-05T09:02:41;9.00;;;2.60;;
65035;SDS011;51603;49.300;8.880;2023-01-05T09:05:07;7.53;;;2.83;;
65035;SDS011;51603;49.300;8.880;2023-01-05T09:07:33;14.87;;;3.17;;
65035;SDS011;51603;49.300;8.880;2023-01-05T09:09:58;11.70;;;3.23;;
65035;SDS011;51603;49.300;8.880;2023-01-05T09:12:24;17.17;;;3.90;;
65035;SDS011;51603;49.300;8.880;2023-01-05T09:14:49;13.57;;;3.40;;
65035;SDS011;51603;49.300;8.880;2023-01-05T09:17:15;12.73;;;3.73;;
65035;SDS011;51603;49.300;8.880;2023-01-05T09:19:40;11.23;;;3.40;;
65035;SDS011;51603;49.300;8.880;2023-01-05T09:22:06;15.90;;;3.50;;
65035;SDS011;51603;49.300;8.880;2023-01-05T09:24:31;9.30;;;2.63;;
65035;SDS011;51603;49.300;8.880;2023-01-05T09:26:57;8.67;;;2.40;;
65035;SDS011;51603;49.300;8.880;2023-01-05T09:29:23;7.20;;;3.30;;
65035;SDS011;51603;49.300;8.880;2023-01-05T09:31:48;9.03;;;3.37;;
65035;SDS011;51603;49.300;8.880;2023-01-05T09:34:14;5.37;;;2.00;;
65035;SDS011;51603;49.300;8.880;2023-01-05T09:36:40;13.97;;;2.80;;
65035;SDS011;51603;49.300;8.880;2023-01-05T09:39:06;7.67;;;2.60;;
65035;SDS011;51603;49.300;8.880;2023-01-05T09:41:48;7.47;;;2.63;;
65035;SDS011;51603;49.300;8.880;2023-01-05T09:44:27;11.30;;;3.00;;
65035;SDS011;51603;49.300;8.880;2023-01-05T09:47:03;11.37;;;3.93;;
65035;SDS011;51603;49.300;8.880;2023-01-05T09:49:35;15.10;;;3.20;;
65035;SDS011;51603;49.300;8.880;2023-01-05T09:52:04;11.37;;;3.47;;
65035;SDS011;51603;49.300;8.880;2023-01-05T09:54:33;8.27;;;2.37;;
65035;SDS011;51603;49.300;8.880;2023-01-05T09:57:00;13.63;;;3.60;;
65035;SDS011;51603;49.300;8.880;2023-01-05T09:59:28;13.57;;;3.40;;
65035;SDS011;51603;49.300;8.880;2023-01-05T10:01:58;9.87;;;3.07;;
65035;SDS011;51603;49.300;8.880;2023-01-05T10:04:26;9.83;;;3.83;;
65035;SDS011;51603;49.300;8.880;2023-01-05T10:07:05;13.80;;;3.33;;
65035;SDS011;51603;49.300;8.880;2023-01-05T10:09:34;16.00;;;3.43;;
65035;SDS011;51603;49.300;8.880;2023-01-05T10:12:20;9.83;;;2.87;;
65035;SDS011;51603;49.300;8.880;2023-01-05T10:15:09;19.23;;;3.70;;
65035;SDS011;51603;49.300;8.880;2023-01-05T10:17:38;9.27;;;2.33;;
65035;SDS011;51603;49.300;8.880;2023-01-05T10:20:14;10.67;;;2.80;;
65035;SDS011;51603;49.300;8.880;2023-01-05T10:22:47;9.50;;;3.73;;
65035;SDS011;51603;49.300;8.880;2023-01-05T10:25:38;9.60;;;3.30;;
65035;SDS011;51603;49.300;8.880;2023-01-05T10:30:59;8.47;;;2.93;;
65035;SDS011;51603;49.300;8.880;2023-01-05T10:33:40;9.53;;;3.10;;
65035;SDS011;51603;49.300;8.880;2023-01-05T10:39:04;10.93;;;3.10;;
65035;SDS011;51603;49.300;8.880;2023-01-05T10:41:42;12.50;;;3.47;;
65035;SDS011;51603;49.300;8.880;2023-01-05T10:47:12;8.93;;;2.50;;
65035;SDS011;51603;49.300;8.880;2023-01-05T10:49:39;9.70;;;3.10;;
65035;SDS011;51603;49.300;8.880;2023-01-05T10:52:10;9.87;;;3.20;;
65035;SDS011;51603;49.300;8.880;2023-01-05T10:54:39;7.23;;;2.70;;
65035;SDS011;51603;49.300;8.880;2023-01-05T10:59:59;9.73;;;3.30;;
65035;SDS011;51603;49.300;8.880;2023-01-05T11:02:29;6.23;;;2.97;;
65035;SDS011;51603;49.300;8.880;2023-01-05T11:05:04;16.17;;;3.97;;
65035;SDS011;51603;49.300;8.880;2023-01-05T11:07:45;14.57;;;4.90;;
65035;SDS011;51603;49.300;8.880;2023-01-05T11:10:26;12.50;;;2.93;;
65035;SDS011;51603;49.300;8.880;2023-01-05T11:13:01;12.43;;;3.60;;
65035;SDS011;51603;49.300;8.880;2023-01-05T11:15:54;15.77;;;3.50;;
65035;SDS011;51603;49.300;8.880;2023-01-05T11:18:23;15.33;;;3.60;;
65035;SDS011;51603;49.300;8.880;2023-01-05T11:21:05;7.03;;;3.57;;
65035;SDS011;51603;49.300;8.880;2023-01-05T11:26:34;7.57;;;4.03;;
65035;SDS011;51603;49.300;8.880;2023-01-05T11:29:19;10.07;;;3.93;;
65035;SDS011;51603;49.300;8.880;2023-01-05T11:42:17;14.97;;;3.80;;
65035;SDS011;51603;49.300;8.880;2023-01-05T11:44:48;10.20;;;3.33;;
65035;SDS011;51603;49.300;8.880;2023-01-05T11:47:21;9.27;;;3.30;;
65035;SDS011;51603;49.300;8.880;2023-01-05T11:49:48;15.30;;;3.20;;
65035;SDS011;51603;49.300;8.880;2023-01-05T11:52:26;13.50;;;3.83;;
65035;SDS011;51603;49.300;8.880;2023-01-05T11:57:44;11.70;;;3.10;;
65035;SDS011;51603;49.300;8.880;2023-01-05T12:00:24;12.77;;;3.40;;
65035;SDS011;51603;49.300;8.880;2023-01-05T12:03:16;13.60;;;3.97;;
65035;SDS011;51603;49.300;8.880;2023-01-05T12:07:04;14.87;;;3.67;;
65035;SDS011;51603;49.300;8.880;2023-01-05T12:11:43;11.93;;;3.80;;
65035;SDS011;51603;49.300;8.880;2023-01-05T12:17:15;14.73;;;3.53;;
65035;SDS011;51603;49.300;8.880;2023-01-05T12:19:51;20.23;;;4.40;;
65035;SDS011;51603;49.300;8.880;2023-01-05T12:25:31;9.37;;;3.23;;
65035;SDS011;51603;49.300;8.880;2023-01-05T12:30:47;7.30;;;3.00;;
65035;SDS011;51603;49.300;8.880;2023-01-05T12:33:23;13.40;;;2.90;;
65035;SDS011;51603;49.300;8.880;2023-01-05T12:39:08;15.83;;;4.47;;
65035;SDS011;51603;49.300;8.880;2023-01-05T12:41:47;13.23;;;3.67;;
65035;SDS011;51603;49.300;8.880;2023-01-05T12:44:29;15.83;;;3.93;;
65035;SDS011;51603;49.300;8.880;2023-01-05T12:52:35;11.43;;;3.70;;
65035;SDS011;51603;49.300;8.880;2023-01-05T12:57:46;6.93;;;3.67;;
65035;SDS011;51603;49.300;8.880;2023-01-05T13:00:18;12.47;;;3.43;;
65035;SDS011;51603;49.300;8.880;2023-01-05T13:08:11;15.77;;;3.77;;
65035;SDS011;51603;49.300;8.880;2023-01-05T13:10:48;18.07;;;4.57;;
65035;SDS011;51603;49.300;8.880;2023-01-05T13:13:19;21.13;;;10.03;;
65035;SDS011;51603;49.300;8.880;2023-01-05T13:18:38;14.87;;;3.60;;
65035;SDS011;51603;49.300;8.880;2023-01-05T13:21:08;11.17;;;3.67;;
65035;SDS011;51603;49.300;8.880;2023-01-05T13:23:39;23.40;;;3.80;;
65035;SDS011;51603;49.300;8.880;2023-01-05T13:26:15;25.93;;;4.80;;
65035;SDS011;51603;49.300;8.880;2023-01-05T13:28:46;13.10;;;3.80;;
65035;SDS011;51603;49.300;8.880;2023-01-05T13:44:42;9.13;;;4.50;;
65035;SDS011;51603;49.300;8.880;2023-01-05T13:53:20;14.67;;;4.23;;
65035;SDS011;51603;49.300;8.880;2023-01-05T13:55:59;10.00;;;3.37;;
65035;SDS011;51603;49.300;8.880;2023-01-05T13:58:33;10.33;;;3.70;;
65035;SDS011;51603;49.300;8.880;2023-01-05T14:01:07;10.10;;;4.20;;
65035;SDS011;51603;49.300;8.880;2023-01-05T14:03:38;10.97;;;3.93;;
65035;SDS011;51603;49.300;8.880;2023-01-05T14:06:16;12.57;;;4.87;;
65035;SDS011;51603;49.300;8.880;2023-01-05T14:09:06;11.80;;;3.60;;
65035;SDS011;51603;49.300;8.880;2023-01-05T14:14:56;13.00;;;3.60;;
65035;SDS011;51603;49.300;8.880;2023-01-05T14:20:30;19.57;;;7.67;;
65035;SDS011;51603;49.300;8.880;2023-01-05T14:23:00;9.73;;;3.40;;
65035;SDS011;51603;49.300;8.880;2023-01-05T14:25:40;15.17;;;4.07;;
65035;SDS011;51603;49.300;8.880;2023-01-05T14:30:47;17.90;;;4.43;;
65035;SDS011;51603;49.300;8.880;2023-01-05T14:33:14;10.70;;;4.10;;
65035;SDS011;51603;49.300;8.880;2023-01-05T14:35:42;11.30;;;4.20;;
65035;SDS011;51603;49.300;8.880;2023-01-05T14:38:20;11.07;;;3.93;;
65035;SDS011;51603;49.300;8.880;2023-01-05T14:40:51;15.23;;;4.03;;
65035;SDS011;51603;49.300;8.880;2023-01-05T14:45:59;16.30;;;5.00;;
65035;SDS011;51603;49.300;8.880;2023-01-05T14:48:38;15.57;;;4.20;;
65035;SDS011;51603;49.300;8.880;2023-01-05T14:53:41;9.37;;;3.43;;
65035;SDS011;51603;49.300;8.880;2023-01-05T14:56:17;12.20;;;4.30;;
65035;SDS011;51603;49.300;8.880;2023-01-05T14:59:13;17.63;;;4.60;;
65035;SDS011;51603;49.300;8.880;2023-01-05T15:01:47;12.43;;;4.57;;
65035;SDS011;51603;49.300;8.880;2023-01-05T15:04:22;15.30;;;4.10;;
65035;SDS011;51603;49.300;8.880;2023-01-05T15:07:10;11.67;;;3.43;;
65035;SDS011;51603;49.300;8.880;2023-01-05T15:09:42;11.87;;;3.90;;
65035;SDS011;51603;49.300;8.880;2023-01-05T15:15:18;11.07;;;3.63;;
65035;SDS011;51603;49.300;8.880;2023-01-05T15:18:14;14.80;;;4.50;;
65035;SDS011;51603;49.300;8.880;2023-01-05T15:21:08;13.37;;;4.87;;
65035;SDS011;51603;49.300;8.880;2023-01-05T15:29:38;12.77;;;5.20;;
65035;SDS011;51603;49.300;8.880;2023-01-05T15:37:29;8.97;;;3.60;;
65035;SDS011;51603;49.300;8.880;2023-01-05T15:39:57;15.87;;;4.37;;
65035;SDS011;51603;49.300;8.880;2023-01-05T15:45:24;13.07;;;3.77;;
65035;SDS011;51603;49.300;8.880;2023-01-05T15:48:05;13.93;;;6.60;;
65035;SDS011;51603;49.300;8.880;2023-01-05T15:50:36;29.60;;;14.00;;
65035;SDS011;51603;49.300;8.880;2023-01-05T15:53:23;19.90;;;9.40;;
65035;SDS011;51603;49.300;8.880;2023-01-05T15:55:51;16.43;;;7.90;;
65035;SDS011;51603;49.300;8.880;2023-01-05T15:58:17;20.57;;;9.40;;
65035;SDS011;51603;49.300;8.880;2023-01-05T16:00:58;19.70;;;7.37;;
65035;SDS011;51603;49.300;8.880;2023-01-05T16:03:26;14.43;;;4.27;;
65035;SDS011;51603;49.300;8.880;2023-01-05T16:05:57;16.93;;;4.00;;
65035;SDS011;51603;49.300;8.880;2023-01-05T16:08:29;18.03;;;3.60;;
65035;SDS011;51603;49.300;8.880;2023-01-05T16:10:58;11.00;;;3.83;;
65035;SDS011;51603;49.300;8.880;2023-01-05T16:15:52;15.60;;;3.90;;
65035;SDS011;51603;49.300;8.880;2023-01-05T16:18:21;14.00;;;4.27;;
65035;SDS011;51603;49.300;8.880;2023-01-05T16:20:52;11.33;;;4.00;;
65035;SDS011;51603;49.300;8.880;2023-01-05T16:25:49;11.53;;;3.33;;
65035;SDS011;51603;49.300;8.880;2023-01-05T16:28:18;8.57;;;3.47;;
65035;SDS011;51603;49.300;8.880;2023-01-05T16:30:46;16.30;;;4.67;;
65035;SDS011;51603;49.300;8.880;2023-01-05T16:35:43;17.10;;;5.20;;
65035;SDS011;51603;49.300;8.880;2023-01-05T16:51:15;13.47;;;4.40;;
65035;SDS011;51603;49.300;8.880;2023-01-05T16:53:58;11.90;;;4.00;;
65035;SDS011;51603;49.300;8.880;2023-01-05T16:58:57;17.83;;;4.60;;
65035;SDS011;51603;49.300;8.880;2023-01-05T17:01:24;22.50;;;6.57;;
65035;SDS011;51603;49.300;8.880;2023-01-05T17:04:09;16.63;;;5.77;;
65035;SDS011;51603;49.300;8.880;2023-01-05T17:06:36;15.80;;;5.33;;
65035;SDS011;51603;49.300;8.880;2023-01-05T17:09:02;22.70;;;8.77;;
65035;SDS011;51603;49.300;8.880;2023-01-05T17:11:34;20.27;;;5.37;;
65035;SDS011;51603;49.300;8.880;2023-01-05T17:14:01;13.70;;;4.23;;
65035;SDS011;51603;49.300;8.880;2023-01-05T17:16:28;13.03;;;3.97;;
65035;SDS011;51603;49.300;8.880;2023-01-05T17:18:54;14.00;;;4.13;;
65035;SDS011;51603;49.300;8.880;2023-01-05T17:21:20;16.47;;;4.40;;
65035;SDS011;51603;49.300;8.880;2023-01-05T17:23:50;16.97;;;4.80;;
65035;SDS011;51603;49.300;8.880;2023-01-05T17:28:46;11.17;;;4.10;;
65035;SDS011;51603;49.300;8.880;2023-01-05T17:31:12;10.67;;;4.37;;
65035;SDS011;51603;49.300;8.880;2023-01-05T17:33:38;11.80;;;3.87;;